createdAt,value
2018-09-17T00:00:01.323Z,798.13
2018-09-17T00:00:05.532Z,798.14
2018-09-17T00:00:09.854Z,798.1
2018-09-17T00:00:13.956Z,798.13
2018-09-17T00:00:18.259Z,798.09
2018-09-17T00:00:22.463Z,798.1
2018-09-17T00:00:26.551Z,798.1
2018-09-17T00:00:30.757Z,798.07
2018-09-17T00:00:34.954Z,798.1
2018-09-17T00:00:39.152Z,798.08
2018-09-17T00:00:43.354Z,798.07
2018-09-17T00:00:47.656Z,798.07
2018-09-17T00:00:51.765Z,798.06
2018-09-17T00:00:55.759Z,798.05
2018-09-17T00:01:00.081Z,798.04
2018-09-17T00:01:04.075Z,798.05
2018-09-17T00:01:08.171Z,798.02
2018-09-17T00:01:12.378Z,798.04
2018-09-17T00:01:16.689Z,798.03
2018-09-17T00:01:20.991Z,798.01
2018-09-17T00:01:25.097Z,797.97
2018-09-17T00:01:29.297Z,798
2018-09-17T00:01:33.389Z,798
2018-09-17T00:01:37.587Z,797.98
2018-09-17T00:01:41.787Z,798.01
2018-09-17T00:01:46.097Z,797.97
2018-09-17T00:01:50.243Z,797.95
2018-09-17T00:01:54.451Z,797.94
2018-09-17T00:01:58.660Z,797.92
2018-09-17T00:02:02.760Z,797.91
2018-09-17T00:02:06.969Z,797.95
2018-09-17T00:02:11.170Z,797.96
2018-09-17T00:02:15.158Z,797.9
2018-09-17T00:02:19.466Z,797.88
2018-09-17T00:02:23.671Z,797.91
2018-09-17T00:02:27.878Z,797.91
2018-09-17T00:02:31.968Z,797.92
2018-09-17T00:02:36.175Z,797.89
2018-09-17T00:02:40.370Z,797.9
2018-09-17T00:02:44.679Z,797.91
2018-09-17T00:02:48.776Z,797.91
2018-09-17T00:02:52.984Z,797.91
2018-09-17T00:02:57.072Z,797.91
2018-09-17T00:03:01.380Z,797.86
2018-09-17T00:03:05.520Z,797.89
2018-09-17T00:03:09.829Z,797.89
2018-09-17T00:03:14.026Z,797.87
2018-09-17T00:03:18.214Z,797.88
2018-09-17T00:03:22.317Z,797.86
2018-09-17T00:03:26.516Z,797.84
2018-09-17T00:03:30.823Z,797.88
2018-09-17T00:03:35.123Z,797.88
2018-09-17T00:03:39.323Z,797.85
2018-09-17T00:03:43.414Z,797.86
2018-09-17T00:03:47.619Z,797.87
2018-09-17T00:03:51.827Z,797.87
2018-09-17T00:03:56.134Z,797.87
2018-09-17T00:04:00.338Z,797.86
2018-09-17T00:04:04.536Z,797.85
2018-09-17T00:04:08.737Z,797.83
2018-09-17T00:04:12.826Z,797.8
2018-09-17T00:04:17.135Z,797.82
2018-09-17T00:04:21.453Z,797.84
2018-09-17T00:04:25.664Z,797.79
2018-09-17T00:04:29.868Z,797.78
2018-09-17T00:04:34.072Z,797.77
2018-09-17T00:04:38.164Z,797.83
2018-09-17T00:04:42.479Z,797.8
2018-09-17T00:04:46.782Z,797.77
2018-09-17T00:04:50.886Z,797.79
2018-09-17T00:04:54.985Z,797.8
2018-09-17T00:04:59.309Z,797.78
2018-09-17T00:05:03.410Z,797.78
2018-09-17T00:05:07.507Z,797.78
2018-09-17T00:05:11.714Z,797.74
2018-09-17T00:05:15.910Z,797.75
2018-09-17T00:05:20.222Z,797.72
2018-09-17T00:05:24.316Z,797.73
2018-09-17T00:05:28.515Z,797.73
2018-09-17T00:05:32.823Z,797.74
2018-09-17T00:05:37.028Z,797.72
2018-09-17T00:05:41.121Z,797.7
2018-09-17T00:05:45.222Z,797.7
2018-09-17T00:05:49.320Z,797.71
2018-09-17T00:05:53.522Z,797.71
2018-09-17T00:05:57.741Z,797.7
2018-09-17T00:06:01.950Z,797.71
2018-09-17T00:06:06.159Z,797.7
2018-09-17T00:06:10.359Z,797.69
2018-09-17T00:06:14.559Z,797.7
2018-09-17T00:06:18.866Z,797.7
2018-09-17T00:06:23.075Z,797.68
2018-09-17T00:06:27.275Z,797.68
2018-09-17T00:06:31.473Z,797.7
2018-09-17T00:06:35.776Z,797.73
2018-09-17T00:06:40.078Z,797.7
2018-09-17T00:06:44.382Z,797.71
2018-09-17T00:06:48.487Z,797.71
2018-09-17T00:06:52.793Z,797.7
2018-09-17T00:06:56.988Z,797.68
2018-09-17T00:07:01.295Z,797.66
2018-09-17T00:07:05.395Z,797.7
2018-09-17T00:07:09.702Z,797.7
2018-09-17T00:07:14.013Z,797.68
2018-09-17T00:07:18.319Z,797.69
2018-09-17T00:07:22.529Z,797.68
2018-09-17T00:07:26.733Z,797.68
2018-09-17T00:07:30.827Z,797.69
2018-09-17T00:07:35.033Z,797.69
2018-09-17T00:07:39.238Z,797.7
2018-09-17T00:07:43.439Z,797.7
2018-09-17T00:07:47.753Z,797.7
2018-09-17T00:07:51.960Z,797.69
2018-09-17T00:07:56.160Z,797.69
2018-09-17T00:08:00.477Z,797.68
2018-09-17T00:08:04.822Z,797.7
2018-09-17T00:08:09.123Z,797.7
2018-09-17T00:08:13.225Z,797.66
2018-09-17T00:08:17.543Z,797.69
2018-09-17T00:08:21.846Z,797.69
2018-09-17T00:08:26.149Z,797.68
2018-09-17T00:08:30.253Z,797.66
2018-09-17T00:08:34.450Z,797.68
2018-09-17T00:08:38.750Z,797.68
2018-09-17T00:08:42.858Z,797.67
2018-09-17T00:08:47.164Z,797.69
2018-09-17T00:08:51.260Z,797.65
2018-09-17T00:08:55.458Z,797.66
2018-09-17T00:08:59.663Z,797.66
2018-09-17T00:09:03.974Z,797.65
2018-09-17T00:09:07.965Z,797.66
2018-09-17T00:09:12.282Z,797.68
2018-09-17T00:09:16.591Z,797.64
2018-09-17T00:09:20.798Z,797.65
2018-09-17T00:09:25.102Z,797.66
2018-09-17T00:09:29.200Z,797.67
2018-09-17T00:09:33.502Z,797.66
2018-09-17T00:09:37.502Z,797.65
2018-09-17T00:09:41.803Z,797.65
2018-09-17T00:09:45.997Z,797.65
2018-09-17T00:09:50.201Z,797.62
2018-09-17T00:09:54.439Z,797.65
2018-09-17T00:09:58.535Z,797.65
2018-09-17T00:10:02.627Z,797.66
2018-09-17T00:10:06.824Z,797.63
2018-09-17T00:10:11.030Z,797.66
2018-09-17T00:10:15.223Z,797.6
2018-09-17T00:10:19.223Z,797.6
2018-09-17T00:10:23.310Z,797.65
2018-09-17T00:10:27.617Z,797.65
2018-09-17T00:10:31.707Z,797.67
2018-09-17T00:10:35.804Z,797.62
2018-09-17T00:10:40.107Z,797.61
2018-09-17T00:10:44.088Z,797.62
2018-09-17T00:10:48.176Z,797.67
2018-09-17T00:10:52.484Z,797.67
2018-09-17T00:10:56.584Z,797.66
2018-09-17T00:11:00.883Z,797.66
2018-09-17T00:11:05.092Z,797.63
2018-09-17T00:11:09.286Z,797.67
2018-09-17T00:11:13.484Z,797.61
2018-09-17T00:11:17.686Z,797.68
2018-09-17T00:11:21.994Z,797.7
2018-09-17T00:11:26.205Z,797.65
2018-09-17T00:11:30.554Z,797.7
2018-09-17T00:11:34.867Z,797.64
2018-09-17T00:11:39.182Z,797.63
2018-09-17T00:11:43.491Z,797.66
2018-09-17T00:11:47.582Z,797.68
2018-09-17T00:11:51.892Z,797.69
2018-09-17T00:11:56.104Z,797.67
2018-09-17T00:12:00.408Z,797.69
2018-09-17T00:12:04.656Z,797.69
2018-09-17T00:12:08.966Z,797.68
2018-09-17T00:12:13.271Z,797.71
2018-09-17T00:12:17.472Z,797.7
2018-09-17T00:12:21.674Z,797.73
2018-09-17T00:12:25.876Z,797.68
2018-09-17T00:12:30.079Z,797.69
2018-09-17T00:12:34.385Z,797.74
2018-09-17T00:12:38.583Z,797.73
2018-09-17T00:12:42.787Z,797.74
2018-09-17T00:12:47.094Z,797.73
2018-09-17T00:12:51.413Z,797.69
2018-09-17T00:12:55.726Z,797.75
2018-09-17T00:12:59.718Z,797.77
2018-09-17T00:13:03.818Z,797.73
2018-09-17T00:13:07.802Z,797.78
2018-09-17T00:13:12.006Z,797.77
2018-09-17T00:13:16.215Z,797.78
2018-09-17T00:13:20.420Z,797.8
2018-09-17T00:13:24.515Z,797.8
2018-09-17T00:13:28.716Z,797.8
2018-09-17T00:13:32.925Z,797.76
2018-09-17T00:13:37.238Z,797.8
2018-09-17T00:13:41.547Z,797.8
2018-09-17T00:13:45.851Z,797.81
2018-09-17T00:13:49.947Z,797.8
2018-09-17T00:13:54.149Z,797.83
2018-09-17T00:13:58.467Z,797.82
2018-09-17T00:14:02.666Z,797.83
2018-09-17T00:14:06.865Z,797.82
2018-09-17T00:14:11.072Z,797.83
2018-09-17T00:14:15.274Z,797.84
2018-09-17T00:14:19.475Z,797.87
2018-09-17T00:14:23.787Z,797.82
2018-09-17T00:14:27.774Z,797.83
2018-09-17T00:14:31.974Z,797.83
2018-09-17T00:14:36.285Z,797.82
2018-09-17T00:14:40.482Z,797.83
2018-09-17T00:14:44.577Z,797.85
2018-09-17T00:14:48.779Z,797.83
2018-09-17T00:14:52.873Z,797.89
2018-09-17T00:14:56.967Z,797.89
2018-09-17T00:15:01.175Z,797.9
2018-09-17T00:15:05.280Z,797.89
2018-09-17T00:15:09.494Z,797.92
2018-09-17T00:15:13.799Z,797.87
2018-09-17T00:15:18.105Z,797.91
2018-09-17T00:15:22.305Z,797.91
2018-09-17T00:15:26.505Z,797.93
2018-09-17T00:15:30.962Z,797.92
2018-09-17T00:15:35.283Z,797.93
2018-09-17T00:15:39.488Z,797.94
2018-09-17T00:15:43.685Z,797.97
2018-09-17T00:15:47.888Z,797.95
2018-09-17T00:15:51.984Z,797.97
2018-09-17T00:15:56.292Z,797.98
2018-09-17T00:16:00.601Z,797.97
2018-09-17T00:16:04.810Z,797.96
2018-09-17T00:16:09.129Z,797.97
2018-09-17T00:16:13.443Z,797.97
2018-09-17T00:16:17.546Z,797.97
2018-09-17T00:16:21.752Z,798.01
2018-09-17T00:16:26.061Z,798.01
2018-09-17T00:16:30.372Z,797.99
2018-09-17T00:16:34.686Z,798
2018-09-17T00:16:38.992Z,797.95
2018-09-17T00:16:43.193Z,798.05
2018-09-17T00:16:47.397Z,798.06
2018-09-17T00:16:51.715Z,798.05
2018-09-17T00:16:55.927Z,798.07
2018-09-17T00:17:00.239Z,798.04
2018-09-17T00:17:04.330Z,798.1
2018-09-17T00:17:08.645Z,798.05
2018-09-17T00:17:12.852Z,798.09
2018-09-17T00:17:17.056Z,798.09
2018-09-17T00:17:21.265Z,798.08
2018-09-17T00:17:25.470Z,798.11
2018-09-17T00:17:29.780Z,798.12
2018-09-17T00:17:33.985Z,798.15
2018-09-17T00:17:37.971Z,798.15
2018-09-17T00:17:42.179Z,798.19
2018-09-17T00:17:46.501Z,798.16
2018-09-17T00:17:50.695Z,798.19
2018-09-17T00:17:54.897Z,798.22
2018-09-17T00:17:59.205Z,798.18
2018-09-17T00:18:03.412Z,798.22
2018-09-17T00:18:07.501Z,798.25
2018-09-17T00:18:11.818Z,798.27
2018-09-17T00:18:15.917Z,798.26
2018-09-17T00:18:20.235Z,798.27
2018-09-17T00:18:24.547Z,798.27
2018-09-17T00:18:28.897Z,798.26
2018-09-17T00:18:33.204Z,798.25
2018-09-17T00:18:37.402Z,798.22
2018-09-17T00:18:41.722Z,798.24
2018-09-17T00:18:45.818Z,798.27
2018-09-17T00:18:50.139Z,798.31
2018-09-17T00:18:54.131Z,798.25
2018-09-17T00:18:58.340Z,798.34
2018-09-17T00:19:02.489Z,798.33
2018-09-17T00:19:06.691Z,798.35
2018-09-17T00:19:10.676Z,798.37
2018-09-17T00:19:15.007Z,798.36
2018-09-17T00:19:19.313Z,798.36
2018-09-17T00:19:23.517Z,798.42
2018-09-17T00:19:27.752Z,798.4
2018-09-17T00:19:32.081Z,798.43
2018-09-17T00:19:36.403Z,798.41
2018-09-17T00:19:40.613Z,798.43
2018-09-17T00:19:44.710Z,798.45
2018-09-17T00:19:48.801Z,798.47
2018-09-17T00:19:53.125Z,798.45
2018-09-17T00:19:57.428Z,798.47
2018-09-17T00:20:01.763Z,798.52
2018-09-17T00:20:05.504Z,798.49
2018-09-17T00:20:09.815Z,798.54
2018-09-17T00:20:13.805Z,798.56
2018-09-17T00:20:18.119Z,798.57
2018-09-17T00:20:22.108Z,798.58
2018-09-17T00:20:26.103Z,798.53
2018-09-17T00:20:30.201Z,798.57
2018-09-17T00:20:34.402Z,798.63
2018-09-17T00:20:38.601Z,798.59
2018-09-17T00:20:42.692Z,798.61
2018-09-17T00:20:46.789Z,798.63
2018-09-17T00:20:50.992Z,798.62
2018-09-17T00:20:55.302Z,798.65
2018-09-17T00:20:59.507Z,798.68
2018-09-17T00:21:03.507Z,798.66
2018-09-17T00:21:07.816Z,798.68
2018-09-17T00:21:12.017Z,798.69
2018-09-17T00:21:16.213Z,798.7
2018-09-17T00:21:20.334Z,798.67
2018-09-17T00:21:24.642Z,798.71
2018-09-17T00:21:28.946Z,798.72
2018-09-17T00:21:33.053Z,798.74
2018-09-17T00:21:37.152Z,798.77
2018-09-17T00:21:41.358Z,798.76
2018-09-17T00:21:45.673Z,798.75
2018-09-17T00:21:49.873Z,798.77
2018-09-17T00:21:54.072Z,798.79
2018-09-17T00:21:58.389Z,798.76
2018-09-17T00:22:02.590Z,798.78
2018-09-17T00:22:06.791Z,798.79
2018-09-17T00:22:10.995Z,798.83
2018-09-17T00:22:15.202Z,798.84
2018-09-17T00:22:19.298Z,798.84
2018-09-17T00:22:23.607Z,798.81
2018-09-17T00:22:27.810Z,798.87
2018-09-17T00:22:31.913Z,798.86
2018-09-17T00:22:36.122Z,798.88
2018-09-17T00:22:40.340Z,798.87
2018-09-17T00:22:44.653Z,798.9
2018-09-17T00:22:48.754Z,798.89
2018-09-17T00:22:52.962Z,798.93
2018-09-17T00:22:57.164Z,798.87
2018-09-17T00:23:01.369Z,798.91
2018-09-17T00:23:05.727Z,798.96
2018-09-17T00:23:09.716Z,798.93
2018-09-17T00:23:13.702Z,798.96
2018-09-17T00:23:17.905Z,798.97
2018-09-17T00:23:22.224Z,798.98
2018-09-17T00:23:26.421Z,798.95
2018-09-17T00:23:30.737Z,798.98
2018-09-17T00:23:35.060Z,799.03
2018-09-17T00:23:39.269Z,798.98
2018-09-17T00:23:43.368Z,798.99
2018-09-17T00:23:47.573Z,798.98
2018-09-17T00:23:51.887Z,799.01
2018-09-17T00:23:56.090Z,799.01
2018-09-17T00:24:00.300Z,799.04
2018-09-17T00:24:04.500Z,799.04
2018-09-17T00:24:08.743Z,799.07
2018-09-17T00:24:12.840Z,799.04
2018-09-17T00:24:17.147Z,799.05
2018-09-17T00:24:21.470Z,799.07
2018-09-17T00:24:25.675Z,799.06
2018-09-17T00:24:29.889Z,799.07
2018-09-17T00:24:33.983Z,799.09
2018-09-17T00:24:38.187Z,799.11
2018-09-17T00:24:42.395Z,799.14
2018-09-17T00:24:46.644Z,799.12
2018-09-17T00:24:50.960Z,799.12
2018-09-17T00:24:55.163Z,799.11
2018-09-17T00:24:59.367Z,799.12
2018-09-17T00:25:03.470Z,799.15
2018-09-17T00:25:07.560Z,799.09
2018-09-17T00:25:11.659Z,799.13
2018-09-17T00:25:15.863Z,799.15
2018-09-17T00:25:20.161Z,799.17
2018-09-17T00:25:24.469Z,799.14
2018-09-17T00:25:28.670Z,799.17
2018-09-17T00:25:32.923Z,799.17
2018-09-17T00:25:37.127Z,799.2
2018-09-17T00:25:41.434Z,799.18
2018-09-17T00:25:45.530Z,799.16
2018-09-17T00:25:49.523Z,799.16
2018-09-17T00:25:53.719Z,799.18
2018-09-17T00:25:58.032Z,799.19
2018-09-17T00:26:02.340Z,799.18
2018-09-17T00:26:06.543Z,799.24
2018-09-17T00:26:10.860Z,799.24
2018-09-17T00:26:15.065Z,799.24
2018-09-17T00:26:19.383Z,799.25
2018-09-17T00:26:23.586Z,799.22
2018-09-17T00:26:27.792Z,799.25
2018-09-17T00:26:31.990Z,799.21
2018-09-17T00:26:36.190Z,799.26
2018-09-17T00:26:40.495Z,799.29
2018-09-17T00:26:44.692Z,799.28
2018-09-17T00:26:48.679Z,799.29
2018-09-17T00:26:52.881Z,799.28
2018-09-17T00:26:57.197Z,799.29
2018-09-17T00:27:01.402Z,799.29
2018-09-17T00:27:05.495Z,799.3
2018-09-17T00:27:09.687Z,799.3
2018-09-17T00:27:13.785Z,799.32
2018-09-17T00:27:18.099Z,799.32
2018-09-17T00:27:22.417Z,799.26
2018-09-17T00:27:26.723Z,799.34
2018-09-17T00:27:30.719Z,799.33
2018-09-17T00:27:35.037Z,799.33
2018-09-17T00:27:39.235Z,799.35
2018-09-17T00:27:43.571Z,799.35
2018-09-17T00:27:47.877Z,799.36
2018-09-17T00:27:51.967Z,799.35
2018-09-17T00:27:56.172Z,799.37
2018-09-17T00:28:00.376Z,799.37
2018-09-17T00:28:04.573Z,799.34
2018-09-17T00:28:08.773Z,799.34
2018-09-17T00:28:12.970Z,799.38
2018-09-17T00:28:17.282Z,799.4
2018-09-17T00:28:21.628Z,799.34
2018-09-17T00:28:25.826Z,799.36
2018-09-17T00:28:30.124Z,799.37
2018-09-17T00:28:34.323Z,799.38
2018-09-17T00:28:38.526Z,799.37
2018-09-17T00:28:42.622Z,799.42
2018-09-17T00:28:46.818Z,799.39
2018-09-17T00:28:51.125Z,799.41
2018-09-17T00:28:55.325Z,799.38
2018-09-17T00:28:59.633Z,799.35
2018-09-17T00:29:03.826Z,799.36
2018-09-17T00:29:07.922Z,799.4
2018-09-17T00:29:12.119Z,799.42
2018-09-17T00:29:16.116Z,799.44
2018-09-17T00:29:20.314Z,799.4
2018-09-17T00:29:24.621Z,799.43
2018-09-17T00:29:28.905Z,799.42
2018-09-17T00:29:32.898Z,799.41
2018-09-17T00:29:37.098Z,799.44
2018-09-17T00:29:41.191Z,799.42
2018-09-17T00:29:45.285Z,799.43
2018-09-17T00:29:49.496Z,799.44
2018-09-17T00:29:53.694Z,799.43
2018-09-17T00:29:57.999Z,799.44
2018-09-17T00:30:02.190Z,799.46
2018-09-17T00:30:06.288Z,799.44
2018-09-17T00:30:10.379Z,799.46
2018-09-17T00:30:14.687Z,799.41
2018-09-17T00:30:18.784Z,799.43
2018-09-17T00:30:22.985Z,799.43
2018-09-17T00:30:27.296Z,799.44
2018-09-17T00:30:31.504Z,799.45
2018-09-17T00:30:35.813Z,799.43
2018-09-17T00:30:40.021Z,799.38
2018-09-17T00:30:44.334Z,799.42
2018-09-17T00:30:48.532Z,799.4
2018-09-17T00:30:52.725Z,799.43
2018-09-17T00:30:57.026Z,799.43
2018-09-17T00:31:01.337Z,799.44
2018-09-17T00:31:05.426Z,799.44
2018-09-17T00:31:09.622Z,799.43
2018-09-17T00:31:13.875Z,799.44
2018-09-17T00:31:18.070Z,799.41
2018-09-17T00:31:22.384Z,799.43
2018-09-17T00:31:26.585Z,799.41
2018-09-17T00:31:30.570Z,799.43
2018-09-17T00:31:34.874Z,799.39
2018-09-17T00:31:39.184Z,799.39
2018-09-17T00:31:43.382Z,799.4
2018-09-17T00:31:47.479Z,799.36
2018-09-17T00:31:51.680Z,799.32
2018-09-17T00:31:55.994Z,799.38
2018-09-17T00:32:00.195Z,799.35
2018-09-17T00:32:04.181Z,799.38
2018-09-17T00:32:08.387Z,799.27
2018-09-17T00:32:12.474Z,799.32
2018-09-17T00:32:16.672Z,799.33
2018-09-17T00:32:20.977Z,799.32
2018-09-17T00:32:25.180Z,799.3
2018-09-17T00:32:29.274Z,799.31
2018-09-17T00:32:33.578Z,799.33
2018-09-17T00:32:37.778Z,799.24
2018-09-17T00:32:42.090Z,799.25
2018-09-17T00:32:46.189Z,799.28
2018-09-17T00:32:50.444Z,799.28
2018-09-17T00:32:54.542Z,799.26
2018-09-17T00:32:58.639Z,799.24
2018-09-17T00:33:02.739Z,799.27
2018-09-17T00:33:06.941Z,799.22
2018-09-17T00:33:11.030Z,799.22
2018-09-17T00:33:15.345Z,799.21
2018-09-17T00:33:19.542Z,799.19
2018-09-17T00:33:23.849Z,799.17
2018-09-17T00:33:27.941Z,799.16
2018-09-17T00:33:32.131Z,799.17
2018-09-17T00:33:36.442Z,799.16
2018-09-17T00:33:40.639Z,799.14
2018-09-17T00:33:44.844Z,799.13
2018-09-17T00:33:49.064Z,799.05
2018-09-17T00:33:53.372Z,799.11
2018-09-17T00:33:57.473Z,799.07
2018-09-17T00:34:01.560Z,799.02
2018-09-17T00:34:05.655Z,799.1
2018-09-17T00:34:09.867Z,799.07
2018-09-17T00:34:14.177Z,799.07
2018-09-17T00:34:18.488Z,799.06
2018-09-17T00:34:22.682Z,799.03
2018-09-17T00:34:26.685Z,799.04
2018-09-17T00:34:30.880Z,799.03
2018-09-17T00:34:35.078Z,799.03
2018-09-17T00:34:39.379Z,799.05
2018-09-17T00:34:43.472Z,799.02
2018-09-17T00:34:47.684Z,799
2018-09-17T00:34:51.990Z,799.01
2018-09-17T00:34:56.193Z,799
2018-09-17T00:35:00.183Z,798.97
2018-09-17T00:35:04.169Z,798.94
2018-09-17T00:35:08.478Z,798.97
2018-09-17T00:35:12.572Z,798.95
2018-09-17T00:35:16.784Z,798.9
2018-09-17T00:35:20.984Z,798.93
2018-09-17T00:35:25.301Z,798.96
2018-09-17T00:35:29.510Z,798.91
2018-09-17T00:35:33.709Z,798.94
2018-09-17T00:35:37.800Z,798.9
2018-09-17T00:35:41.895Z,798.91
2018-09-17T00:35:46.096Z,798.91
2018-09-17T00:35:50.296Z,798.88
2018-09-17T00:35:54.604Z,798.89
2018-09-17T00:35:58.803Z,798.81
2018-09-17T00:36:02.681Z,798.87
2018-09-17T00:36:06.883Z,798.88
2018-09-17T00:36:11.197Z,798.88
2018-09-17T00:36:15.505Z,798.88
2018-09-17T00:36:19.706Z,798.87
2018-09-17T00:36:24.012Z,798.86
2018-09-17T00:36:28.322Z,798.87
2018-09-17T00:36:32.525Z,798.87
2018-09-17T00:36:36.824Z,798.82
2018-09-17T00:36:41.023Z,798.82
2018-09-17T00:36:45.323Z,798.83
2018-09-17T00:36:49.532Z,798.81
2018-09-17T00:36:53.621Z,798.81
2018-09-17T00:36:57.922Z,798.76
2018-09-17T00:37:02.328Z,798.77
2018-09-17T00:37:06.520Z,798.75
2018-09-17T00:37:10.613Z,798.77
2018-09-17T00:37:14.933Z,798.75
2018-09-17T00:37:19.133Z,798.77
2018-09-17T00:37:23.436Z,798.78
2018-09-17T00:37:27.421Z,798.74
2018-09-17T00:37:31.637Z,798.71
2018-09-17T00:37:35.945Z,798.73
2018-09-17T00:37:40.155Z,798.72
2018-09-17T00:37:44.350Z,798.69
2018-09-17T00:37:48.655Z,798.66
2018-09-17T00:37:52.959Z,798.65
2018-09-17T00:37:57.063Z,798.69
2018-09-17T00:38:01.369Z,798.69
2018-09-17T00:38:05.462Z,798.65
2018-09-17T00:38:09.766Z,798.68
2018-09-17T00:38:14.019Z,798.64
2018-09-17T00:38:18.229Z,798.65
2018-09-17T00:38:22.539Z,798.66
2018-09-17T00:38:26.745Z,798.67
2018-09-17T00:38:30.941Z,798.61
2018-09-17T00:38:35.137Z,798.63
2018-09-17T00:38:39.228Z,798.59
2018-09-17T00:38:43.538Z,798.62
2018-09-17T00:38:47.892Z,798.65
2018-09-17T00:38:52.099Z,798.65
2018-09-17T00:38:56.410Z,798.64
2018-09-17T00:39:00.505Z,798.65
2018-09-17T00:39:04.603Z,798.61
2018-09-17T00:39:08.693Z,798.64
2018-09-17T00:39:12.997Z,798.6
2018-09-17T00:39:17.201Z,798.64
2018-09-17T00:39:21.399Z,798.61
2018-09-17T00:39:25.604Z,798.62
2018-09-17T00:39:29.700Z,798.63
2018-09-17T00:39:34.006Z,798.6
2018-09-17T00:39:37.999Z,798.61
2018-09-17T00:39:42.302Z,798.61
2018-09-17T00:39:46.623Z,798.61
2018-09-17T00:39:50.929Z,798.59
2018-09-17T00:39:55.237Z,798.6
2018-09-17T00:39:59.437Z,798.62
2018-09-17T00:40:03.485Z,798.63
2018-09-17T00:40:07.577Z,798.55
2018-09-17T00:40:11.775Z,798.6
2018-09-17T00:40:15.973Z,798.58
2018-09-17T00:40:20.168Z,798.57
2018-09-17T00:40:24.380Z,798.59
2018-09-17T00:40:28.576Z,798.59
2018-09-17T00:40:32.675Z,798.61
2018-09-17T00:40:36.985Z,798.57
2018-09-17T00:40:41.072Z,798.61
2018-09-17T00:40:45.273Z,798.62
2018-09-17T00:40:49.273Z,798.54
2018-09-17T00:40:53.469Z,798.62
2018-09-17T00:40:57.772Z,798.6
2018-09-17T00:41:01.974Z,798.58
2018-09-17T00:41:06.237Z,798.57
2018-09-17T00:41:10.441Z,798.59
2018-09-17T00:41:14.741Z,798.62
2018-09-17T00:41:18.941Z,798.57
2018-09-17T00:41:23.250Z,798.63
2018-09-17T00:41:27.450Z,798.61
2018-09-17T00:41:31.757Z,798.63
2018-09-17T00:41:35.963Z,798.63
2018-09-17T00:41:39.951Z,798.56
2018-09-17T00:41:44.050Z,798.63
2018-09-17T00:41:48.359Z,798.65
2018-09-17T00:41:52.568Z,798.63
2018-09-17T00:41:56.774Z,798.66
2018-09-17T00:42:00.987Z,798.66
2018-09-17T00:42:05.078Z,798.65
2018-09-17T00:42:09.173Z,798.63
2018-09-17T00:42:13.158Z,798.6
2018-09-17T00:42:17.468Z,798.65
2018-09-17T00:42:21.562Z,798.64
2018-09-17T00:42:25.789Z,798.65
2018-09-17T00:42:29.878Z,798.64
2018-09-17T00:42:34.183Z,798.64
2018-09-17T00:42:38.384Z,798.65
2018-09-17T00:42:42.687Z,798.65
2018-09-17T00:42:46.992Z,798.65
2018-09-17T00:42:51.188Z,798.62
2018-09-17T00:42:55.506Z,798.6
2018-09-17T00:42:59.596Z,798.64
2018-09-17T00:43:03.909Z,798.6
2018-09-17T00:43:08.106Z,798.64
2018-09-17T00:43:12.203Z,798.64
2018-09-17T00:43:16.528Z,798.67
2018-09-17T00:43:20.724Z,798.62
2018-09-17T00:43:24.496Z,798.61
2018-09-17T00:43:28.704Z,798.65
2018-09-17T00:43:32.905Z,798.63
2018-09-17T00:43:37.104Z,798.64
2018-09-17T00:43:41.354Z,798.68
2018-09-17T00:43:45.557Z,798.65
2018-09-17T00:43:49.868Z,798.62
2018-09-17T00:43:54.189Z,798.64
2018-09-17T00:43:58.489Z,798.65
2018-09-17T00:44:02.795Z,798.61
2018-09-17T00:44:06.781Z,798.6
2018-09-17T00:44:10.873Z,798.59
2018-09-17T00:44:14.970Z,798.63
2018-09-17T00:44:19.287Z,798.6
2018-09-17T00:44:23.593Z,798.63
2018-09-17T00:44:27.796Z,798.63
2018-09-17T00:44:32.111Z,798.63
2018-09-17T00:44:36.419Z,798.67
2018-09-17T00:44:40.730Z,798.66
2018-09-17T00:44:44.716Z,798.64
2018-09-17T00:44:48.936Z,798.63
2018-09-17T00:44:53.254Z,798.63
2018-09-17T00:44:57.556Z,798.64
2018-09-17T00:45:01.652Z,798.65
2018-09-17T00:45:05.748Z,798.63
2018-09-17T00:45:09.946Z,798.63
2018-09-17T00:45:14.039Z,798.6
2018-09-17T00:45:18.233Z,798.63
2018-09-17T00:45:22.328Z,798.62
2018-09-17T00:45:26.427Z,798.66
2018-09-17T00:45:30.628Z,798.63
2018-09-17T00:45:34.826Z,798.65
2018-09-17T00:45:39.126Z,798.67
2018-09-17T00:45:43.339Z,798.66
2018-09-17T00:45:47.547Z,798.68
2018-09-17T00:45:51.749Z,798.63
2018-09-17T00:45:56.051Z,798.67
2018-09-17T00:46:00.244Z,798.67
2018-09-17T00:46:04.433Z,798.65
2018-09-17T00:46:08.632Z,798.67
2018-09-17T00:46:12.935Z,798.65
2018-09-17T00:46:17.132Z,798.65
2018-09-17T00:46:21.334Z,798.67
2018-09-17T00:46:25.531Z,798.66
2018-09-17T00:46:29.633Z,798.63
2018-09-17T00:46:33.827Z,798.68
2018-09-17T00:46:38.127Z,798.67
2018-09-17T00:46:42.428Z,798.66
2018-09-17T00:46:46.627Z,798.66
2018-09-17T00:46:50.617Z,798.64
2018-09-17T00:46:54.832Z,798.64
2018-09-17T00:46:59.033Z,798.64
2018-09-17T00:47:03.014Z,798.67
2018-09-17T00:47:07.102Z,798.64
2018-09-17T00:47:11.301Z,798.64
2018-09-17T00:47:15.455Z,798.65
2018-09-17T00:47:19.653Z,798.65
2018-09-17T00:47:23.740Z,798.67
2018-09-17T00:47:28.047Z,798.64
2018-09-17T00:47:32.252Z,798.66
2018-09-17T00:47:36.563Z,798.65
2018-09-17T00:47:40.767Z,798.62
2018-09-17T00:47:44.968Z,798.64
2018-09-17T00:47:49.169Z,798.66
2018-09-17T00:47:53.159Z,798.64
2018-09-17T00:47:57.358Z,798.63
2018-09-17T00:48:01.448Z,798.64
2018-09-17T00:48:05.434Z,798.64
2018-09-17T00:48:09.536Z,798.65
2018-09-17T00:48:13.731Z,798.65
2018-09-17T00:48:18.050Z,798.64
2018-09-17T00:48:22.361Z,798.65
2018-09-17T00:48:26.692Z,798.64
2018-09-17T00:48:30.896Z,798.64
2018-09-17T00:48:35.208Z,798.66
2018-09-17T00:48:39.407Z,798.62
2018-09-17T00:48:43.712Z,798.64
2018-09-17T00:48:47.915Z,798.64
2018-09-17T00:48:52.009Z,798.64
2018-09-17T00:48:56.097Z,798.61
2018-09-17T00:49:00.297Z,798.66
2018-09-17T00:49:04.391Z,798.63
2018-09-17T00:49:08.481Z,798.61
2018-09-17T00:49:12.682Z,798.63
2018-09-17T00:49:16.995Z,798.66
2018-09-17T00:49:21.314Z,798.64
2018-09-17T00:49:25.519Z,798.63
2018-09-17T00:49:29.728Z,798.63
2018-09-17T00:49:34.029Z,798.61
2018-09-17T00:49:38.011Z,798.66
2018-09-17T00:49:42.323Z,798.65
2018-09-17T00:49:46.539Z,798.65
2018-09-17T00:49:50.847Z,798.64
2018-09-17T00:49:54.941Z,798.66
2018-09-17T00:49:59.245Z,798.69
2018-09-17T00:50:03.334Z,798.64
2018-09-17T00:50:07.428Z,798.64
2018-09-17T00:50:11.741Z,798.65
2018-09-17T00:50:15.932Z,798.67
2018-09-17T00:50:20.245Z,798.68
2018-09-17T00:50:24.333Z,798.66
2018-09-17T00:50:28.638Z,798.68
2018-09-17T00:50:32.836Z,798.64
2018-09-17T00:50:37.148Z,798.66
2018-09-17T00:50:41.283Z,798.67
2018-09-17T00:50:45.267Z,798.66
2018-09-17T00:50:49.157Z,798.64
2018-09-17T00:50:53.359Z,798.68
2018-09-17T00:50:57.682Z,798.66
2018-09-17T00:51:01.982Z,798.67
2018-09-17T00:51:05.913Z,798.7
2018-09-17T00:51:10.009Z,798.7
2018-09-17T00:51:14.204Z,798.72
2018-09-17T00:51:18.400Z,798.66
2018-09-17T00:51:22.597Z,798.71
2018-09-17T00:51:26.691Z,798.68
2018-09-17T00:51:30.896Z,798.72
2018-09-17T00:51:35.098Z,798.64
2018-09-17T00:51:39.304Z,798.69
2018-09-17T00:51:43.608Z,798.72
2018-09-17T00:51:47.809Z,798.71
2018-09-17T00:51:52.018Z,798.73
2018-09-17T00:51:56.329Z,798.71
2018-09-17T00:52:00.526Z,798.72
2018-09-17T00:52:04.837Z,798.73
2018-09-17T00:52:09.036Z,798.74
2018-09-17T00:52:13.333Z,798.67
2018-09-17T00:52:17.646Z,798.75
2018-09-17T00:52:21.943Z,798.7
2018-09-17T00:52:26.244Z,798.76
2018-09-17T00:52:30.436Z,798.75
2018-09-17T00:52:34.642Z,798.69
2018-09-17T00:52:38.841Z,798.76